createdAt,value
2023-04-16T00:00:42.573Z,5.38
2023-04-16T00:03:09.299Z,5.70
2023-04-16T00:05:35.984Z,4.95
2023-04-16T00:08:03.152Z,5.30
2023-04-16T00:10:29.600Z,4.73
2023-04-16T00:12:56.062Z,5.20
2023-04-16T00:15:22.665Z,4.80
2023-04-16T00:17:49.264Z,5.00
2023-04-16T00:20:15.815Z,4.95
2023-04-16T00:22:42.303Z,5.83
2023-04-16T00:25:09.113Z,5.60
2023-04-16T00:27:35.776Z,5.82
2023-04-16T00:30:03.545Z,4.80
2023-04-16T00:32:30.697Z,5.65
2023-04-16T00:34:57.236Z,5.10
2023-04-16T00:37:23.771Z,4.65
2023-04-16T00:39:50.695Z,5.03
2023-04-16T00:42:17.230Z,5.65
2023-04-16T00:44:43.730Z,5.07
2023-04-16T00:47:10.666Z,5.37
2023-04-16T00:49:37.552Z,5.70
2023-04-16T00:52:04.343Z,5.22
2023-04-16T00:54:31.894Z,5.25
2023-04-16T00:56:59.518Z,6.35
2023-04-16T00:59:27.021Z,5.07
2023-04-16T01:01:53.600Z,5.50
2023-04-16T01:04:20.317Z,5.35
2023-04-16T01:06:46.957Z,5.40
2023-04-16T01:09:13.400Z,5.60
2023-04-16T01:11:39.959Z,5.50
2023-04-16T01:14:06.544Z,6.18
2023-04-16T01:16:33.087Z,5.75
2023-04-16T01:18:59.581Z,5.93
2023-04-16T01:21:26.549Z,5.60
2023-04-16T01:23:52.992Z,6.07
2023-04-16T01:26:19.455Z,6.47
2023-04-16T01:28:46.293Z,6.20
2023-04-16T01:31:12.806Z,6.00
2023-04-16T01:33:39.266Z,6.40
2023-04-16T01:36:06.041Z,5.40
2023-04-16T01:38:32.522Z,6.07
2023-04-16T01:40:59.598Z,6.55
2023-04-16T01:43:26.169Z,5.68
2023-04-16T01:45:59.593Z,6.20
2023-04-16T01:48:26.091Z,5.80
2023-04-16T01:50:52.561Z,6.47
2023-04-16T01:53:19.041Z,6.40
2023-04-16T01:55:45.591Z,6.25
2023-04-16T01:58:14.752Z,6.35
2023-04-16T02:00:41.349Z,6.20
2023-04-16T02:03:07.986Z,6.18
2023-04-16T02:05:34.684Z,5.72
2023-04-16T02:08:01.245Z,6.82
2023-04-16T02:10:27.674Z,6.57
2023-04-16T02:12:54.134Z,6.40
2023-04-16T02:15:20.563Z,6.13
2023-04-16T02:17:48.638Z,7.25
2023-04-16T02:20:15.919Z,7.10
2023-04-16T02:22:43.428Z,7.72
2023-04-16T02:25:09.943Z,6.93
2023-04-16T02:27:36.708Z,7.55
2023-04-16T02:30:04.344Z,8.27
2023-04-16T02:32:30.906Z,7.57
2023-04-16T02:34:57.389Z,8.43
2023-04-16T02:37:24.679Z,8.90
2023-04-16T02:39:51.441Z,9.23
2023-04-16T02:42:17.876Z,9.13
2023-04-16T02:44:44.346Z,10.00
2023-04-16T02:47:10.817Z,9.65
2023-04-16T02:49:37.253Z,9.50
2023-04-16T02:52:03.739Z,8.80
2023-04-16T02:54:30.282Z,7.63
2023-04-16T02:56:56.879Z,8.35
2023-04-16T02:59:23.345Z,9.52
2023-04-16T03:01:50.013Z,8.37
2023-04-16T03:04:16.675Z,8.02
2023-04-16T03:06:43.158Z,9.32
2023-04-16T03:09:09.795Z,9.10
2023-04-16T03:11:36.386Z,10.02
2023-04-16T03:14:02.826Z,9.00
2023-04-16T03:16:29.262Z,9.75
2023-04-16T03:18:55.688Z,9.75
2023-04-16T03:21:22.140Z,9.40
2023-04-16T03:23:48.916Z,8.85
2023-04-16T03:26:15.494Z,10.00
2023-04-16T03:28:41.930Z,11.13
2023-04-16T03:31:08.469Z,10.57
2023-04-16T03:33:34.886Z,11.07
2023-04-16T03:36:01.421Z,11.18
2023-04-16T03:38:27.920Z,10.17
2023-04-16T03:40:54.348Z,10.65
2023-04-16T03:43:21.043Z,11.23
2023-04-16T03:45:47.770Z,10.20
2023-04-16T03:48:14.257Z,10.90
2023-04-16T03:50:40.987Z,10.40
2023-04-16T03:53:07.521Z,9.80
2023-04-16T03:55:35.145Z,9.18
2023-04-16T03:58:03.314Z,9.98
2023-04-16T04:00:30.475Z,9.18
2023-04-16T04:02:57.264Z,9.60
2023-04-16T04:05:23.914Z,9.90
2023-04-16T04:07:50.622Z,10.10
2023-04-16T04:10:17.060Z,11.30
2023-04-16T04:12:44.073Z,11.32
2023-04-16T04:15:11.623Z,9.90
2023-04-16T04:17:38.214Z,9.93
2023-04-16T04:20:05.320Z,11.07
2023-04-16T04:22:31.820Z,9.70
2023-04-16T04:24:58.312Z,10.93
2023-04-16T04:27:24.828Z,9.83
2023-04-16T04:29:51.314Z,10.10
2023-04-16T04:32:17.730Z,11.10
2023-04-16T04:34:44.178Z,11.18
2023-04-16T04:37:10.607Z,12.63
2023-04-16T04:39:37.065Z,10.70
2023-04-16T04:42:03.825Z,11.27
2023-04-16T04:44:30.342Z,11.70
2023-04-16T04:46:56.770Z,13.18
2023-04-16T04:49:23.201Z,11.15
2023-04-16T04:51:49.804Z,11.27
2023-04-16T04:54:16.651Z,10.90
2023-04-16T04:56:45.835Z,11.10
2023-04-16T04:59:12.696Z,11.75
2023-04-16T05:01:39.384Z,12.27
2023-04-16T05:04:06.348Z,11.43
2023-04-16T05:06:32.952Z,11.00
2023-04-16T05:08:59.416Z,11.05
2023-04-16T05:11:25.884Z,11.07
2023-04-16T05:13:52.377Z,11.40
2023-04-16T05:16:18.865Z,11.13
2023-04-16T05:18:45.498Z,10.65
2023-04-16T05:21:12.031Z,10.70
2023-04-16T05:23:38.542Z,11.70
2023-04-16T05:26:05.181Z,13.48
2023-04-16T05:28:31.738Z,11.83
2023-04-16T05:30:58.328Z,10.70
2023-04-16T05:33:24.779Z,13.07
2023-04-16T05:35:51.327Z,13.30
2023-04-16T05:38:17.815Z,12.88
2023-04-16T05:40:44.319Z,13.50
2023-04-16T05:43:10.985Z,12.32
2023-04-16T05:45:41.228Z,15.57
2023-04-16T05:48:12.365Z,13.00
2023-04-16T05:50:38.861Z,13.63
2023-04-16T05:53:09.117Z,12.83
2023-04-16T05:55:36.911Z,13.05
2023-04-16T05:58:06.325Z,14.40
2023-04-16T06:00:33.174Z,11.98
2023-04-16T06:02:59.963Z,11.90
2023-04-16T06:05:27.100Z,13.27
2023-04-16T06:07:53.730Z,12.13
2023-04-16T06:10:20.380Z,12.82
2023-04-16T06:12:46.802Z,12.43
2023-04-16T06:15:13.306Z,12.27
2023-04-16T06:17:40.091Z,12.17
2023-04-16T06:20:07.171Z,12.40
2023-04-16T06:22:33.664Z,13.80
2023-04-16T06:25:00.151Z,11.77
2023-04-16T06:27:27.135Z,12.75
2023-04-16T06:29:53.566Z,11.43
2023-04-16T06:32:20.392Z,11.95
2023-04-16T06:34:46.935Z,11.65
2023-04-16T06:37:13.357Z,13.02
2023-04-16T06:39:39.785Z,12.75
2023-04-16T06:42:06.283Z,12.93
2023-04-16T06:44:32.812Z,13.05
2023-04-16T06:46:59.267Z,13.93
2023-04-16T06:49:25.747Z,13.63
2023-04-16T06:51:52.220Z,13.40
2023-04-16T06:54:19.737Z,13.20
2023-04-16T06:56:46.203Z,15.02
2023-04-16T06:59:12.720Z,13.25
2023-04-16T07:01:39.239Z,12.95
2023-04-16T07:04:05.961Z,14.73
2023-04-16T07:06:32.542Z,15.07
2023-04-16T07:08:58.998Z,15.00
2023-04-16T07:11:26.538Z,14.50
2023-04-16T07:13:53.868Z,13.32
2023-04-16T07:16:20.587Z,14.38
2023-04-16T07:18:47.136Z,13.97
2023-04-16T07:21:13.631Z,14.45
2023-04-16T07:23:40.244Z,16.80
2023-04-16T07:26:06.727Z,13.35
2023-04-16T07:28:33.235Z,14.93
2023-04-16T07:31:00.079Z,14.87
2023-04-16T07:33:27.331Z,14.00
2023-04-16T07:35:53.880Z,13.52
2023-04-16T07:38:20.654Z,14.60
2023-04-16T07:40:47.164Z,15.93
2023-04-16T07:43:15.162Z,13.93
2023-04-16T07:45:41.890Z,15.05
2023-04-16T07:48:08.389Z,15.25
2023-04-16T07:50:34.850Z,14.40
2023-04-16T07:53:01.397Z,14.95
2023-04-16T07:55:27.923Z,15.00
2023-04-16T07:57:54.903Z,15.25
2023-04-16T08:00:21.531Z,13.48
2023-04-16T08:02:48.612Z,14.80
2023-04-16T08:05:15.492Z,15.15
2023-04-16T08:07:42.215Z,13.53
2023-04-16T08:10:09.237Z,13.82
2023-04-16T08:12:35.955Z,14.05
2023-04-16T08:15:02.494Z,14.00
2023-04-16T08:17:30.106Z,13.32
2023-04-16T08:19:56.765Z,12.10
2023-04-16T08:22:23.272Z,11.77
2023-04-16T08:24:49.735Z,12.68
2023-04-16T08:27:19.856Z,11.63
2023-04-16T08:29:47.695Z,12.10
2023-04-16T08:32:14.227Z,11.63
2023-04-16T08:34:42.029Z,12.77
2023-04-16T08:37:08.806Z,11.52
2023-04-16T08:39:35.532Z,11.35
2023-04-16T08:42:05.602Z,12.10
2023-04-16T08:44:34.905Z,11.10
2023-04-16T08:47:02.292Z,10.05
2023-04-16T08:49:29.896Z,10.15
2023-04-16T08:51:57.036Z,10.23
2023-04-16T08:54:57.094Z,10.32
2023-04-16T08:57:26.932Z,10.83
2023-04-16T08:59:55.859Z,10.65
2023-04-16T09:02:23.072Z,10.55
2023-04-16T09:04:51.283Z,10.82
2023-04-16T09:07:20.770Z,9.95
2023-04-16T09:09:49.504Z,9.37
2023-04-16T09:12:17.056Z,10.02
2023-04-16T09:14:44.235Z,9.55
2023-04-16T09:17:12.331Z,9.77
2023-04-16T09:19:38.853Z,9.48
2023-04-16T09:22:05.459Z,8.07
2023-04-16T09:24:32.351Z,9.25
2023-04-16T09:27:00.573Z,8.63
2023-04-16T09:29:36.253Z,8.88
2023-04-16T09:32:05.158Z,9.50
2023-04-16T09:34:36.173Z,7.93
2023-04-16T09:37:21.071Z,7.80
2023-04-16T09:40:00.819Z,8.75
2023-04-16T09:42:36.160Z,8.60
2023-04-16T09:45:05.499Z,7.95
2023-04-16T09:47:41.461Z,9.30
2023-04-16T09:50:11.274Z,7.82
2023-04-16T09:52:39.062Z,8.52
2023-04-16T09:55:06.327Z,9.40
2023-04-16T09:57:32.810Z,8.15
2023-04-16T10:00:04.865Z,8.40
2023-04-16T10:02:32.969Z,8.75
2023-04-16T10:05:02.365Z,8.38
2023-04-16T10:07:30.011Z,9.13
2023-04-16T10:09:56.993Z,9.00
2023-04-16T10:12:23.459Z,7.93
2023-04-16T10:14:50.393Z,8.15
2023-04-16T10:17:17.219Z,8.10
2023-04-16T10:19:44.342Z,7.65
2023-04-16T10:22:11.495Z,9.27
2023-04-16T10:24:38.976Z,8.37
2023-04-16T10:27:05.716Z,7.78
2023-04-16T10:29:33.378Z,8.27
2023-04-16T10:32:01.155Z,7.57
2023-04-16T10:34:29.022Z,8.70
2023-04-16T10:36:55.996Z,7.83
2023-04-16T10:39:24.591Z,7.90
2023-04-16T10:42:06.201Z,8.35
2023-04-16T10:44:33.330Z,7.82
2023-04-16T10:47:00.148Z,8.55
2023-04-16T10:49:27.150Z,8.00
2023-04-16T10:52:03.678Z,8.05
2023-04-16T10:54:31.284Z,7.80
2023-04-16T10:57:00.783Z,7.90
2023-04-16T10:59:32.491Z,8.23
2023-04-16T11:02:01.625Z,8.33
2023-04-16T11:04:33.170Z,8.48
2023-04-16T11:07:14.669Z,9.48
2023-04-16T11:09:48.152Z,9.15
2023-04-16T11:12:19.205Z,9.20
2023-04-16T11:14:51.154Z,8.80
2023-04-16T11:17:18.617Z,8.98
2023-04-16T11:19:45.369Z,8.80
2023-04-16T11:22:17.670Z,8.95
2023-04-16T11:24:45.614Z,9.75
2023-04-16T11:27:13.932Z,9.47
2023-04-16T11:29:40.686Z,9.65
2023-04-16T11:32:07.581Z,9.57
2023-04-16T11:34:34.381Z,9.88
2023-04-16T11:37:01.130Z,10.43
2023-04-16T11:39:27.712Z,10.97
2023-04-16T11:41:55.564Z,11.32
2023-04-16T11:44:23.474Z,11.98
2023-04-16T11:46:51.496Z,13.27
2023-04-16T11:49:27.063Z,12.70
2023-04-16T11:51:53.742Z,11.30
2023-04-16T11:54:21.580Z,11.63
2023-04-16T11:56:50.864Z,13.70
2023-04-16T11:59:18.520Z,13.23
2023-04-16T12:01:52.898Z,13.57
2023-04-16T12:04:21.281Z,13.27
2023-04-16T12:07:06.836Z,13.73
2023-04-16T12:09:37.130Z,12.57
2023-04-16T12:12:06.139Z,12.27
2023-04-16T12:14:32.925Z,13.68
2023-04-16T12:17:19.747Z,13.20
2023-04-16T12:20:17.185Z,11.52
2023-04-16T12:22:49.590Z,11.10
2023-04-16T12:25:17.856Z,12.50
2023-04-16T12:27:54.039Z,12.57
2023-04-16T12:30:22.878Z,12.10
2023-04-16T12:32:51.855Z,11.88
2023-04-16T12:35:32.073Z,12.38
2023-04-16T12:37:58.922Z,11.75
2023-04-16T12:40:25.499Z,11.68
2023-04-16T12:42:52.322Z,10.87
2023-04-16T12:45:19.040Z,11.40
2023-04-16T12:47:46.202Z,11.45
2023-04-16T12:50:12.803Z,11.00
2023-04-16T12:52:39.414Z,10.25
2023-04-16T12:55:06.359Z,10.17
2023-04-16T12:57:32.991Z,9.73
2023-04-16T12:59:59.507Z,10.48
2023-04-16T13:02:26.668Z,9.88
2023-04-16T13:04:54.311Z,10.60
2023-04-16T13:07:21.302Z,9.60
2023-04-16T13:09:47.971Z,10.05
2023-04-16T13:12:14.437Z,10.52
2023-04-16T13:14:42.762Z,10.15
2023-04-16T13:17:10.649Z,9.57
2023-04-16T13:19:37.093Z,10.07
2023-04-16T13:22:03.711Z,9.27
2023-04-16T13:24:30.685Z,9.63
2023-04-16T13:26:57.219Z,9.70
2023-04-16T13:29:23.675Z,10.82
2023-04-16T13:31:50.577Z,11.30
2023-04-16T13:34:17.177Z,10.77
2023-04-16T13:36:43.614Z,10.38
2023-04-16T13:39:13.049Z,11.20
2023-04-16T13:41:40.106Z,11.43
2023-04-16T13:44:06.805Z,12.40
2023-04-16T13:46:33.922Z,11.60
2023-04-16T13:49:00.501Z,12.10
2023-04-16T13:51:27.846Z,10.95
2023-04-16T13:53:55.093Z,12.50
2023-04-16T13:56:21.778Z,11.37
2023-04-16T13:58:48.595Z,12.73
2023-04-16T14:01:15.151Z,12.23
2023-04-16T14:03:42.065Z,13.15
2023-04-16T14:06:08.711Z,12.23
2023-04-16T14:08:35.278Z,12.03
2023-04-16T14:11:02.147Z,13.68
2023-04-16T14:13:28.652Z,11.73
2023-04-16T14:15:55.676Z,12.50
2023-04-16T14:18:22.196Z,12.98
2023-04-16T14:20:48.848Z,13.13
2023-04-16T14:23:15.333Z,12.73
2023-04-16T14:25:41.874Z,13.30
2023-04-16T14:28:09.264Z,12.85
2023-04-16T14:30:35.750Z,13.65
2023-04-16T14:33:05.614Z,12.37
2023-04-16T14:35:33.671Z,12.93
2023-04-16T14:38:01.224Z,11.13
2023-04-16T14:40:27.757Z,10.60
2023-04-16T14:42:54.189Z,12.10
2023-04-16T14:45:20.996Z,12.27
2023-04-16T14:47:48.128Z,11.23
2023-04-16T14:50:15.773Z,10.65
2023-04-16T14:52:42.390Z,10.40
2023-04-16T14:55:08.997Z,11.73
2023-04-16T14:57:35.578Z,11.70
2023-04-16T15:00:02.335Z,11.80
2023-04-16T15:02:29.042Z,12.43
2023-04-16T15:04:55.598Z,10.93
2023-04-16T15:07:22.110Z,12.38
2023-04-16T15:09:48.627Z,11.73
2023-04-16T15:12:16.233Z,11.60
2023-04-16T15:14:43.919Z,13.00
2023-04-16T15:17:10.630Z,11.30
2023-04-16T15:19:37.224Z,10.98
2023-04-16T15:22:03.705Z,10.10
2023-04-16T15:24:30.327Z,10.55
2023-04-16T15:26:56.804Z,10.45
2023-04-16T15:29:23.297Z,10.82
2023-04-16T15:31:49.783Z,10.02
2023-04-16T15:34:16.281Z,10.07
2023-04-16T15:36:42.880Z,10.38
2023-04-16T15:39:09.911Z,9.80
2023-04-16T15:41:50.176Z,11.52
2023-04-16T15:44:23.888Z,10.23
2023-04-16T15:46:50.547Z,10.23
2023-04-16T15:49:17.083Z,11.07
2023-04-16T15:51:43.560Z,11.02
2023-04-16T15:54:10.067Z,9.43
2023-04-16T15:56:36.561Z,10.65
2023-04-16T15:59:03.817Z,10.33
2023-04-16T16:01:31.122Z,11.43
2023-04-16T16:03:57.780Z,11.80
2023-04-16T16:06:24.664Z,10.48
2023-04-16T16:08:51.277Z,10.43
2023-04-16T16:11:18.026Z,11.40
2023-04-16T16:13:44.614Z,11.10
2023-04-16T16:16:11.372Z,12.55
2023-04-16T16:18:37.966Z,12.13
2023-04-16T16:21:04.438Z,11.82
2023-04-16T16:23:31.303Z,11.33
2023-04-16T16:25:57.761Z,11.95
2023-04-16T16:28:25.564Z,11.57
2023-04-16T16:30:54.615Z,11.50
2023-04-16T16:33:21.394Z,12.35
2023-04-16T16:35:47.838Z,12.60
2023-04-16T16:38:14.394Z,12.70
2023-04-16T16:40:40.862Z,12.40
2023-04-16T16:43:07.875Z,12.75
2023-04-16T16:45:34.434Z,11.88
2023-04-16T16:48:01.136Z,12.67
2023-04-16T16:50:27.738Z,12.35
2023-04-16T16:52:54.166Z,12.82
2023-04-16T16:55:21.000Z,13.50
2023-04-16T16:57:47.473Z,12.57
2023-04-16T17:00:16.164Z,13.70
2023-04-16T17:02:43.354Z,13.18
2023-04-16T17:05:10.180Z,13.77
2023-04-16T17:07:36.880Z,14.20
2023-04-16T17:10:06.130Z,13.35
2023-04-16T17:12:33.252Z,13.93
2023-04-16T17:14:59.736Z,13.32
2023-04-16T17:17:27.857Z,12.80
2023-04-16T17:19:54.453Z,14.00
2023-04-16T17:22:21.582Z,14.77
2023-04-16T17:24:48.128Z,13.70
2023-04-16T17:27:14.847Z,13.30
2023-04-16T17:29:41.336Z,14.27
2023-04-16T17:32:07.892Z,15.05
2023-04-16T17:34:34.737Z,15.73
2023-04-16T17:37:01.232Z,14.03
2023-04-16T17:39:27.662Z,15.63
2023-04-16T17:41:58.328Z,13.43
2023-04-16T17:44:25.754Z,14.07
2023-04-16T17:46:52.219Z,15.45
2023-04-16T17:49:18.790Z,16.07
2023-04-16T17:51:45.602Z,13.98
2023-04-16T17:54:12.171Z,14.43
2023-04-16T17:56:38.862Z,15.18
2023-04-16T17:59:05.498Z,14.75
2023-04-16T18:01:32.020Z,14.23
2023-04-16T18:03:58.647Z,14.15
2023-04-16T18:06:26.397Z,14.70
2023-04-16T18:08:52.905Z,14.23
2023-04-16T18:11:19.399Z,14.35
2023-04-16T18:13:46.383Z,14.23
2023-04-16T18:16:16.869Z,13.35
2023-04-16T18:18:44.363Z,13.98
2023-04-16T18:21:11.109Z,14.35
2023-04-16T18:23:37.786Z,13.68
2023-04-16T18:26:04.464Z,13.83
2023-04-16T18:28:30.990Z,14.77
2023-04-16T18:30:59.179Z,14.23
2023-04-16T18:33:52.428Z,14.05
2023-04-16T18:36:12.221Z,14.68
2023-04-16T18:38:49.484Z,13.73
2023-04-16T18:41:24.053Z,13.25
2023-04-16T18:43:50.823Z,14.32
2023-04-16T18:46:17.629Z,15.23
2023-04-16T18:48:45.198Z,13.93
2023-04-16T18:51:12.839Z,13.53
2023-04-16T18:53:42.421Z,14.38
2023-04-16T18:56:09.554Z,14.07
2023-04-16T18:58:36.671Z,14.95
2023-04-16T19:01:03.757Z,16.27
2023-04-16T19:03:30.997Z,16.23
2023-04-16T19:05:57.676Z,16.65
2023-04-16T19:08:24.236Z,16.40
2023-04-16T19:10:50.825Z,16.10
2023-04-16T19:13:17.369Z,17.23
2023-04-16T19:15:44.357Z,17.77
2023-04-16T19:18:10.892Z,16.35
2023-04-16T19:20:37.862Z,17.13
2023-04-16T19:23:05.764Z,16.50
2023-04-16T19:25:32.647Z,17.42
2023-04-16T19:27:59.413Z,17.53
2023-04-16T19:30:26.415Z,16.60
2023-04-16T19:32:55.126Z,19.02
2023-04-16T19:35:22.249Z,19.33
2023-04-16T19:37:51.245Z,19.33
2023-04-16T19:40:17.857Z,18.63
2023-04-16T19:42:45.437Z,18.55
2023-04-16T19:45:12.194Z,18.80
2023-04-16T19:47:38.729Z,18.90
2023-04-16T19:50:05.875Z,18.27
2023-04-16T19:52:37.452Z,19.23
2023-04-16T19:55:05.102Z,18.90
2023-04-16T19:57:31.629Z,18.33
2023-04-16T19:59:58.101Z,17.90
2023-04-16T20:02:24.734Z,19.08
2023-04-16T20:04:52.906Z,19.43
2023-04-16T20:07:19.916Z,19.30
2023-04-16T20:09:46.495Z,18.75
2023-04-16T20:12:12.973Z,19.67
2023-04-16T20:14:39.451Z,19.58
2023-04-16T20:17:10.040Z,19.30
2023-04-16T20:19:40.053Z,19.98
2023-04-16T20:22:06.695Z,19.42
2023-04-16T20:24:33.263Z,19.77
2023-04-16T20:26:59.756Z,19.88
2023-04-16T20:29:26.220Z,19.53
2023-04-16T20:31:52.679Z,19.63
2023-04-16T20:34:19.173Z,18.40
2023-04-16T20:36:45.824Z,19.00
2023-04-16T20:39:12.664Z,21.80
2023-04-16T20:41:43.971Z,21.40
2023-04-16T20:44:18.010Z,18.95
2023-04-16T20:46:49.489Z,20.80
2023-04-16T20:49:17.546Z,20.80
2023-04-16T20:51:44.131Z,21.20
2023-04-16T20:54:10.795Z,19.43
2023-04-16T20:56:37.302Z,21.60
2023-04-16T20:59:03.793Z,20.27
2023-04-16T21:01:30.774Z,18.85
2023-04-16T21:03:57.557Z,19.77
2023-04-16T21:06:24.196Z,19.37
2023-04-16T21:08:50.689Z,20.23
2023-04-16T21:11:17.182Z,21.25
2023-04-16T21:13:43.665Z,20.08
2023-04-16T21:16:12.329Z,22.13
2023-04-16T21:18:38.921Z,19.53
2023-04-16T21:21:05.515Z,20.40
2023-04-16T21:23:31.964Z,21.05
2023-04-16T21:25:58.454Z,20.42
2023-04-16T21:28:25.044Z,21.55
2023-04-16T21:30:52.405Z,23.43
2023-04-16T21:33:18.894Z,20.20
2023-04-16T21:35:50.965Z,22.15
2023-04-16T21:38:17.509Z,20.90
2023-04-16T21:40:45.912Z,21.50
2023-04-16T21:43:12.417Z,21.53
2023-04-16T21:45:39.755Z,21.63
2023-04-16T21:48:06.678Z,21.67
2023-04-16T21:50:33.271Z,21.63
2023-04-16T21:52:59.838Z,20.33
2023-04-16T21:55:26.330Z,21.40
2023-04-16T21:57:52.793Z,22.08
2023-04-16T22:00:19.524Z,21.38
2023-04-16T22:02:46.240Z,19.83
2023-04-16T22:05:12.889Z,20.38
2023-04-16T22:07:39.394Z,19.93
2023-04-16T22:10:06.929Z,17.67
2023-04-16T22:12:33.394Z,20.13
2023-04-16T22:15:02.753Z,20.48
2023-04-16T22:17:30.100Z,19.55
2023-04-16T22:19:57.332Z,18.80
2023-04-16T22:22:23.806Z,19.25
2023-04-16T22:24:50.357Z,21.08
2023-04-16T22:27:16.888Z,20.27
2023-04-16T22:29:43.440Z,20.10
2023-04-16T22:32:09.963Z,19.87
2023-04-16T22:34:36.617Z,18.10
2023-04-16T22:37:03.137Z,19.40
2023-04-16T22:39:30.922Z,19.27
2023-04-16T22:41:57.465Z,20.23
2023-04-16T22:44:23.933Z,19.33
2023-04-16T22:46:50.512Z,20.20
2023-04-16T22:49:17.052Z,20.30
2023-04-16T22:51:43.566Z,17.98
2023-04-16T22:54:13.267Z,19.08
2023-04-16T22:56:40.806Z,18.67
2023-04-16T22:59:07.935Z,20.73
2023-04-16T23:01:34.756Z,19.77
2023-04-16T23:04:01.309Z,22.73
2023-04-16T23:06:27.840Z,21.58
2023-04-16T23:08:54.324Z,19.93
2023-04-16T23:11:20.863Z,20.67
2023-04-16T23:13:47.328Z,21.02
2023-04-16T23:16:13.952Z,21.75
2023-04-16T23:18:40.526Z,22.48
2023-04-16T23:21:06.963Z,20.97
2023-04-16T23:23:33.398Z,21.40
2023-04-16T23:26:02.472Z,21.25
2023-04-16T23:28:29.100Z,19.27
2023-04-16T23:30:55.677Z,23.90
2023-04-16T23:33:22.481Z,20.87
2023-04-16T23:35:49.017Z,22.58
2023-04-16T23:38:15.621Z,22.65
2023-04-16T23:40:42.167Z,21.98
2023-04-16T23:43:08.652Z,21.45
2023-04-16T23:45:35.279Z,21.77
2023-04-16T23:48:01.825Z,21.70
2023-04-16T23:50:28.386Z,22.92
2023-04-16T23:52:54.884Z,21.52
2023-04-16T23:55:21.514Z,22.33
2023-04-16T23:57:47.966Z,21.97
